createdAt,value
2018-04-02T00:02:17.237Z,52.03
2018-04-02T00:05:19.800Z,51.47
2018-04-02T00:08:22.260Z,53.53
2018-04-02T00:11:24.831Z,51.47
2018-04-02T00:14:27.287Z,52.30
2018-04-02T00:17:29.851Z,51.43
2018-04-02T00:20:32.307Z,52.23
2018-04-02T00:23:34.807Z,52.40
2018-04-02T00:26:37.259Z,52.73
2018-04-02T00:29:39.792Z,52.63
2018-04-02T00:32:42.260Z,52.80
2018-04-02T00:35:44.813Z,54.37
2018-04-02T00:38:47.261Z,52.40
2018-04-02T00:41:49.731Z,52.57
2018-04-02T00:44:52.228Z,52.47
2018-04-02T00:47:54.757Z,51.50
2018-04-02T00:50:57.316Z,49.80
2018-04-02T00:53:59.886Z,49.10
2018-04-02T00:57:03.060Z,49.20
2018-04-02T01:00:05.618Z,48.47
2018-04-02T01:03:08.101Z,46.67
2018-04-02T01:06:10.641Z,47.57
2018-04-02T01:09:13.108Z,46.70
2018-04-02T01:12:15.576Z,47.07
2018-04-02T01:15:18.058Z,53.07
2018-04-02T01:18:20.522Z,53.17
2018-04-02T01:21:22.965Z,51.10
2018-04-02T01:24:25.428Z,50.17
2018-04-02T01:27:27.888Z,51.20
2018-04-02T01:30:30.408Z,53.57
2018-04-02T01:33:34.163Z,55.50
2018-04-02T01:36:36.612Z,52.43
2018-04-02T01:39:39.142Z,53.40
2018-04-02T01:42:41.567Z,50.00
2018-04-02T01:45:44.022Z,52.17
2018-04-02T01:48:46.529Z,52.70
2018-04-02T01:51:48.977Z,53.73
2018-04-02T01:54:51.487Z,52.87
2018-04-02T01:57:54.048Z,50.97
2018-04-02T02:00:56.474Z,50.80
2018-04-02T02:03:58.933Z,50.60
2018-04-02T02:07:02.873Z,46.77
2018-04-02T02:10:05.297Z,49.67
2018-04-02T02:13:07.757Z,47.80
2018-04-02T02:16:10.311Z,48.17
2018-04-02T02:19:12.788Z,50.27
2018-04-02T02:22:15.253Z,46.03
2018-04-02T02:25:17.788Z,44.30
2018-04-02T02:28:20.351Z,44.20
2018-04-02T02:31:22.920Z,43.20
2018-04-02T02:34:25.430Z,45.30
2018-04-02T02:37:27.946Z,44.73
2018-04-02T02:40:30.378Z,43.50
2018-04-02T02:43:32.963Z,42.60
2018-04-02T02:46:35.433Z,41.77
2018-04-02T02:49:37.857Z,41.67
2018-04-02T02:52:40.349Z,40.60
2018-04-02T02:55:42.916Z,40.97
2018-04-02T02:58:45.468Z,41.40
2018-04-02T03:01:48.009Z,40.23
2018-04-02T03:04:50.445Z,44.60
2018-04-02T03:07:53.052Z,43.10
2018-04-02T03:10:55.574Z,42.50
2018-04-02T03:13:59.272Z,43.03
2018-04-02T03:17:01.869Z,42.17
2018-04-02T03:20:04.437Z,41.60
2018-04-02T03:23:06.897Z,35.20
2018-04-02T03:26:10.178Z,35.90
2018-04-02T03:29:12.638Z,34.97
2018-04-02T03:32:15.104Z,30.60
2018-04-02T03:35:17.657Z,30.57
2018-04-02T03:38:20.149Z,32.40
2018-04-02T03:41:22.682Z,34.10
2018-04-02T03:44:25.143Z,34.13
2018-04-02T03:47:27.660Z,35.00
2018-04-02T03:50:30.135Z,40.47
2018-04-02T03:53:32.628Z,42.53
2018-04-02T03:56:35.088Z,39.83
2018-04-02T03:59:37.570Z,41.40
2018-04-02T04:02:40.045Z,42.20
2018-04-02T04:05:42.488Z,42.23
2018-04-02T04:08:45.509Z,44.13
2018-04-02T04:11:48.000Z,46.30
2018-04-02T04:14:50.572Z,45.43
2018-04-02T04:17:53.028Z,45.57
2018-04-02T04:20:55.580Z,44.57
2018-04-02T04:23:58.049Z,45.50
2018-04-02T04:27:00.569Z,48.10
2018-04-02T04:30:03.024Z,46.00
2018-04-02T04:33:05.538Z,47.10
2018-04-02T04:36:09.535Z,49.23
2018-04-02T04:39:12.090Z,47.57
2018-04-02T04:42:14.655Z,45.77
2018-04-02T04:45:17.142Z,42.40
2018-04-02T04:48:19.674Z,41.93
2018-04-02T04:51:22.238Z,43.87
2018-04-02T04:54:24.694Z,42.30
2018-04-02T04:57:27.260Z,41.57
2018-04-02T05:00:29.747Z,42.60
2018-04-02T05:03:32.225Z,42.37
2018-04-02T05:06:34.750Z,42.90
2018-04-02T05:09:37.314Z,45.33
2018-04-02T05:12:39.772Z,46.77
2018-04-02T05:15:42.216Z,46.23
2018-04-02T05:18:44.685Z,46.40
2018-04-02T05:21:47.259Z,46.50
2018-04-02T05:24:49.706Z,46.33
2018-04-02T05:27:52.278Z,46.17
2018-04-02T05:30:54.884Z,46.97
2018-04-02T05:33:57.360Z,45.60
2018-04-02T05:36:59.790Z,47.67
2018-04-02T05:40:02.268Z,47.97
2018-04-02T05:43:04.735Z,47.80
2018-04-02T05:46:07.272Z,48.50
2018-04-02T05:49:09.748Z,48.23
2018-04-02T05:52:12.280Z,46.60
2018-04-02T05:55:14.761Z,45.57
2018-04-02T05:58:17.284Z,45.53
2018-04-02T06:01:19.754Z,47.90
2018-04-02T06:04:22.323Z,46.47
2018-04-02T06:07:24.774Z,47.23
2018-04-02T06:10:27.342Z,48.50
2018-04-02T06:13:29.863Z,47.77
2018-04-02T06:16:32.373Z,48.83
2018-04-02T06:19:34.826Z,48.97
2018-04-02T06:22:37.384Z,48.70
2018-04-02T06:25:39.841Z,53.60
2018-04-02T06:28:42.363Z,51.87
2018-04-02T06:31:44.886Z,53.60
2018-04-02T06:34:47.534Z,53.50
2018-04-02T06:37:49.966Z,56.03
2018-04-02T06:40:52.454Z,58.50
2018-04-02T06:43:54.896Z,57.40
2018-04-02T06:46:57.390Z,56.83
2018-04-02T06:49:59.896Z,59.13
2018-04-02T06:53:02.352Z,58.20
2018-04-02T06:56:04.923Z,55.10
2018-04-02T06:59:07.425Z,59.80
2018-04-02T07:02:09.881Z,60.30
2018-04-02T07:05:12.376Z,57.27
2018-04-02T07:08:14.841Z,55.97
2018-04-02T07:11:17.378Z,59.60
2018-04-02T07:14:19.926Z,58.83
2018-04-02T07:17:22.407Z,57.03
2018-04-02T07:20:24.956Z,56.40
2018-04-02T07:23:27.415Z,59.30
2018-04-02T07:26:29.901Z,59.03
2018-04-02T07:29:32.433Z,58.00
2018-04-02T07:32:34.996Z,58.90
2018-04-02T07:35:37.467Z,64.37
2018-04-02T07:38:39.980Z,64.30
2018-04-02T07:41:42.502Z,66.00
2018-04-02T07:44:44.977Z,67.93
2018-04-02T07:47:47.486Z,71.13
2018-04-02T07:50:50.080Z,71.00
2018-04-02T07:53:52.541Z,76.33
2018-04-02T07:56:55.048Z,83.20
2018-04-02T07:59:57.558Z,83.67
2018-04-02T08:03:00.118Z,86.10
2018-04-02T08:06:02.625Z,88.90
2018-04-02T08:09:05.147Z,88.17
2018-04-02T08:12:07.746Z,95.17
2018-04-02T08:15:10.167Z,89.90
2018-04-02T08:18:12.665Z,91.50
2018-04-02T08:21:15.253Z,85.80
2018-04-02T08:24:17.923Z,78.30
2018-04-02T08:27:20.512Z,83.37
2018-04-02T08:30:22.986Z,78.47
2018-04-02T08:33:25.485Z,77.10
2018-04-02T08:36:28.035Z,81.80
2018-04-02T08:39:30.544Z,81.63
2018-04-02T08:42:33.130Z,77.17
2018-04-02T08:45:35.817Z,77.87
2018-04-02T08:48:38.360Z,76.27
2018-04-02T08:51:40.853Z,76.60
2018-04-02T08:54:43.383Z,74.73
2018-04-02T08:57:45.938Z,73.77
2018-04-02T09:00:48.512Z,71.77
2018-04-02T09:03:51.062Z,71.77
2018-04-02T09:06:53.557Z,70.60
2018-04-02T09:09:56.096Z,71.70
2018-04-02T09:12:58.652Z,71.53
2018-04-02T09:16:01.144Z,70.17
2018-04-02T09:19:03.623Z,64.07
2018-04-02T09:22:06.132Z,67.07
2018-04-02T09:25:08.668Z,63.90
2018-04-02T09:28:11.196Z,63.23
2018-04-02T09:31:13.652Z,62.80
2018-04-02T09:34:16.184Z,60.70
2018-04-02T09:37:18.677Z,58.33
2018-04-02T09:40:21.212Z,56.90
2018-04-02T09:43:23.703Z,57.00
2018-04-02T09:46:26.332Z,51.77
2018-04-02T09:49:28.863Z,52.80
2018-04-02T09:52:31.358Z,54.37
2018-04-02T09:55:33.913Z,52.97
2018-04-02T09:58:36.417Z,50.50
2018-04-02T10:01:38.883Z,53.20
2018-04-02T10:04:43.336Z,50.73
2018-04-02T10:07:45.784Z,52.10
2018-04-02T10:10:48.242Z,52.93
2018-04-02T10:13:50.758Z,50.07
2018-04-02T10:16:53.254Z,52.03
2018-04-02T10:19:55.848Z,48.87
2018-04-02T10:22:58.373Z,49.40
2018-04-02T10:26:00.982Z,47.10
2018-04-02T10:29:03.471Z,47.70
2018-04-02T10:32:05.958Z,45.23
2018-04-02T10:35:08.443Z,46.00
2018-04-02T10:38:10.945Z,43.10
2018-04-02T10:41:13.411Z,44.23
2018-04-02T10:44:15.947Z,43.07
2018-04-02T10:47:18.608Z,41.70
2018-04-02T10:50:21.180Z,42.77
2018-04-02T10:53:23.653Z,40.10
2018-04-02T10:56:26.153Z,42.00
2018-04-02T10:59:28.664Z,38.00
2018-04-02T11:02:31.118Z,39.00
2018-04-02T11:05:33.684Z,39.60
2018-04-02T11:08:36.239Z,36.77
2018-04-02T11:11:38.759Z,36.93
2018-04-02T11:14:41.250Z,37.33
2018-04-02T11:17:43.755Z,35.30
2018-04-02T11:20:46.295Z,36.30
2018-04-02T11:23:48.829Z,33.90
2018-04-02T11:26:51.303Z,35.60
2018-04-02T11:29:53.814Z,35.00
2018-04-02T11:32:56.340Z,36.47
2018-04-02T11:35:58.808Z,35.43
2018-04-02T11:39:01.334Z,34.90
2018-04-02T11:42:03.923Z,32.57
2018-04-02T11:45:06.454Z,32.40
2018-04-02T11:48:09.012Z,31.53
2018-04-02T11:51:11.610Z,30.00
2018-04-02T11:54:14.065Z,29.97
2018-04-02T11:57:16.557Z,28.43
2018-04-02T12:00:19.153Z,30.03
2018-04-02T12:03:21.666Z,28.70
2018-04-02T12:06:24.143Z,27.43
2018-04-02T12:09:26.617Z,27.23
2018-04-02T12:12:29.268Z,27.43
2018-04-02T12:15:31.780Z,26.00
2018-04-02T12:18:34.371Z,23.87
2018-04-02T12:21:36.825Z,23.97
2018-04-02T12:24:39.379Z,24.70
2018-04-02T12:27:41.959Z,24.03
2018-04-02T12:30:44.619Z,25.93
2018-04-02T12:33:47.108Z,24.03
2018-04-02T12:36:49.629Z,23.83
2018-04-02T12:39:52.084Z,25.10
2018-04-02T12:42:54.594Z,24.90
2018-04-02T12:45:57.134Z,24.00
2018-04-02T12:48:59.707Z,26.03
2018-04-02T12:52:02.188Z,24.10
2018-04-02T12:55:04.690Z,25.57
2018-04-02T12:58:07.180Z,27.10
2018-04-02T13:01:09.671Z,25.87
2018-04-02T13:04:12.194Z,28.37
2018-04-02T13:07:14.669Z,26.53
2018-04-02T13:10:17.145Z,26.30
2018-04-02T13:13:19.685Z,26.23
2018-04-02T13:16:22.174Z,25.33
2018-04-02T13:19:24.746Z,26.87
2018-04-02T13:22:27.234Z,24.73
2018-04-02T13:25:29.743Z,25.13
2018-04-02T13:28:32.294Z,24.43
2018-04-02T13:31:34.890Z,25.07
2018-04-02T13:34:37.470Z,24.23
2018-04-02T13:37:40.066Z,23.50
2018-04-02T13:40:42.647Z,21.37
2018-04-02T13:43:45.206Z,20.20
2018-04-02T13:46:47.650Z,21.20
2018-04-02T13:49:50.227Z,20.47
2018-04-02T13:52:52.750Z,19.30
2018-04-02T13:55:55.252Z,19.17
2018-04-02T13:58:57.717Z,19.77
2018-04-02T14:02:00.248Z,19.40
2018-04-02T14:05:02.713Z,18.37
2018-04-02T14:08:05.212Z,19.37
2018-04-02T14:11:07.769Z,20.00
2018-04-02T14:14:10.267Z,19.47
2018-04-02T14:17:12.781Z,18.07
2018-04-02T14:20:15.303Z,17.20
2018-04-02T14:23:17.850Z,18.00
2018-04-02T14:26:20.369Z,16.47
2018-04-02T14:29:22.917Z,16.47
2018-04-02T14:32:25.366Z,15.80
2018-04-02T14:35:27.908Z,17.47
2018-04-02T14:38:30.365Z,15.90
2018-04-02T14:41:32.840Z,17.20
2018-04-02T14:44:35.377Z,15.90
2018-04-02T14:47:37.927Z,14.67
2018-04-02T14:50:40.448Z,15.20
2018-04-02T14:53:42.961Z,15.13
2018-04-02T14:56:45.417Z,15.20
2018-04-02T14:59:47.930Z,14.43
2018-04-02T15:02:50.422Z,15.50
2018-04-02T15:05:52.988Z,14.73
2018-04-02T15:08:55.502Z,15.93
2018-04-02T15:11:57.987Z,14.90
2018-04-02T15:15:00.517Z,16.33
2018-04-02T15:18:03.022Z,15.20
2018-04-02T15:21:05.581Z,16.00
2018-04-02T15:24:08.116Z,15.77
2018-04-02T15:27:10.703Z,15.80
2018-04-02T15:30:13.267Z,15.07
2018-04-02T15:33:15.728Z,15.27
2018-04-02T15:36:18.291Z,15.13
2018-04-02T15:39:20.853Z,14.77
2018-04-02T15:42:23.349Z,13.60
2018-04-02T15:45:25.845Z,13.00
2018-04-02T15:48:28.387Z,14.70
2018-04-02T15:51:30.929Z,14.10
2018-04-02T15:54:33.397Z,13.77
2018-04-02T15:57:38.799Z,14.93
2018-04-02T16:00:41.511Z,13.50
2018-04-02T16:03:44.002Z,13.50
2018-04-02T16:06:46.511Z,14.23
2018-04-02T16:09:48.997Z,13.00
2018-04-02T16:12:51.481Z,12.77
2018-04-02T16:15:53.968Z,13.70
2018-04-02T16:18:56.453Z,13.50
2018-04-02T16:21:58.937Z,13.47
2018-04-02T16:25:01.446Z,12.80
2018-04-02T16:28:03.939Z,12.90
2018-04-02T16:31:06.443Z,13.63
2018-04-02T16:34:08.961Z,12.80
2018-04-02T16:37:11.545Z,13.17
2018-04-02T16:40:13.991Z,12.73
2018-04-02T16:43:16.482Z,13.47
2018-04-02T16:46:19.188Z,11.93
2018-04-02T16:49:21.754Z,12.97
2018-04-02T16:52:24.352Z,12.17
2018-04-02T16:55:26.877Z,12.67
2018-04-02T16:58:29.450Z,12.83
2018-04-02T17:01:31.944Z,12.97
2018-04-02T17:04:34.471Z,13.30
2018-04-02T17:07:36.958Z,12.93
2018-04-02T17:10:39.464Z,12.30
2018-04-02T17:13:41.962Z,13.10
2018-04-02T17:16:44.434Z,13.70
2018-04-02T17:19:46.964Z,13.57
2018-04-02T17:22:49.525Z,12.83
2018-04-02T17:25:52.054Z,12.63
2018-04-02T17:28:54.515Z,12.90
2018-04-02T17:31:57.105Z,12.53
2018-04-02T17:34:59.663Z,12.87
2018-04-02T17:38:02.118Z,13.30
2018-04-02T17:41:04.620Z,12.87
2018-04-02T17:44:07.091Z,11.83
2018-04-02T17:47:09.561Z,12.50
2018-04-02T17:50:12.058Z,11.90
2018-04-02T17:53:14.585Z,11.97
2018-04-02T17:56:17.174Z,11.00
2018-04-02T17:59:19.653Z,11.60
2018-04-02T18:02:22.099Z,11.40
2018-04-02T18:05:24.658Z,11.63
2018-04-02T18:08:27.125Z,12.20
2018-04-02T18:11:29.682Z,11.67
2018-04-02T18:14:32.216Z,10.77
2018-04-02T18:17:34.773Z,10.77
2018-04-02T18:20:37.301Z,11.60
2018-04-02T18:23:39.795Z,11.77
2018-04-02T18:26:42.369Z,10.83
2018-04-02T18:29:44.834Z,11.83
2018-04-02T18:32:47.457Z,11.40
2018-04-02T18:35:50.119Z,11.03
2018-04-02T18:38:52.613Z,10.97
2018-04-02T18:41:55.122Z,11.30
2018-04-02T18:44:57.700Z,11.10
2018-04-02T18:48:00.199Z,11.20
2018-04-02T18:51:02.725Z,10.83
2018-04-02T18:54:05.293Z,11.33
2018-04-02T18:57:07.848Z,10.40
2018-04-02T19:00:10.415Z,10.40
2018-04-02T19:03:12.922Z,10.40
2018-04-02T19:06:15.541Z,10.40
2018-04-02T19:09:18.040Z,10.40
2018-04-02T19:12:20.640Z,10.83
2018-04-02T19:15:23.150Z,10.23
2018-04-02T19:18:25.696Z,10.30
2018-04-02T19:21:28.206Z,10.10
2018-04-02T19:24:31.569Z,10.50
2018-04-02T19:27:34.194Z,10.20
2018-04-02T19:30:36.736Z,9.90
2018-04-02T19:33:39.232Z,9.13
2018-04-02T19:36:41.706Z,9.67
2018-04-02T19:39:44.225Z,8.77
2018-04-02T19:42:46.686Z,8.67
2018-04-02T19:45:49.205Z,8.10
2018-04-02T19:48:51.729Z,7.97
2018-04-02T19:51:54.247Z,8.00
2018-04-02T19:54:56.798Z,8.00
2018-04-02T19:57:59.289Z,8.10
2018-04-02T20:01:02.426Z,7.77
2018-04-02T20:04:04.940Z,7.50
2018-04-02T20:07:07.512Z,8.73
2018-04-02T20:10:09.992Z,7.77
2018-04-02T20:13:12.699Z,7.50
2018-04-02T20:16:15.220Z,7.10
2018-04-02T20:19:17.703Z,7.60
2018-04-02T20:22:20.291Z,7.50
2018-04-02T20:25:22.881Z,7.00
2018-04-02T20:28:25.475Z,7.53
2018-04-02T20:31:28.012Z,7.10
2018-04-02T20:34:30.472Z,6.80
2018-04-02T20:37:33.034Z,6.83
2018-04-02T20:40:35.542Z,6.50
2018-04-02T20:43:38.010Z,6.20
2018-04-02T20:46:40.454Z,6.50
2018-04-02T20:49:43.089Z,6.70
2018-04-02T20:52:45.648Z,6.20
2018-04-02T20:55:48.205Z,6.93
2018-04-02T20:58:50.765Z,7.07
2018-04-02T21:01:53.262Z,6.50
2018-04-02T21:04:55.770Z,6.47
2018-04-02T21:07:58.257Z,6.63
2018-04-02T21:11:00.710Z,6.70
2018-04-02T21:14:03.210Z,6.37
2018-04-02T21:17:05.718Z,6.43
2018-04-02T21:20:08.270Z,6.10
2018-04-02T21:23:10.966Z,6.10
2018-04-02T21:26:13.530Z,5.97
2018-04-02T21:29:16.087Z,6.93
2018-04-02T21:32:18.588Z,6.67
2018-04-02T21:35:21.072Z,6.37
2018-04-02T21:38:23.582Z,6.17
2018-04-02T21:41:26.050Z,6.20
2018-04-02T21:44:28.600Z,6.37
2018-04-02T21:47:31.086Z,6.60
2018-04-02T21:50:33.553Z,6.33
2018-04-02T21:53:36.045Z,6.57
2018-04-02T21:56:38.502Z,6.00
2018-04-02T21:59:41.014Z,6.53
2018-04-02T22:02:43.565Z,7.00
2018-04-02T22:05:46.229Z,6.77
2018-04-02T22:08:48.742Z,6.80
2018-04-02T22:11:51.255Z,6.07
2018-04-02T22:14:53.753Z,6.13
2018-04-02T22:17:56.246Z,6.27
2018-04-02T22:20:58.695Z,6.87
2018-04-02T22:24:01.300Z,6.27
2018-04-02T22:27:03.802Z,6.60
2018-04-02T22:30:06.303Z,7.17
2018-04-02T22:33:08.767Z,6.23
2018-04-02T22:36:11.267Z,6.10
2018-04-02T22:39:13.813Z,7.60
2018-04-02T22:42:16.372Z,6.77
2018-04-02T22:45:18.832Z,7.00
2018-04-02T22:48:21.399Z,5.90
2018-04-02T22:51:23.956Z,6.40
2018-04-02T22:54:26.452Z,6.30
2018-04-02T22:57:28.951Z,6.30
2018-04-02T23:00:31.442Z,5.80
2018-04-02T23:03:33.897Z,6.57
2018-04-02T23:06:36.402Z,6.07
2018-04-02T23:09:38.935Z,8.50
2018-04-02T23:12:41.377Z,6.70
2018-04-02T23:15:43.914Z,6.40
2018-04-02T23:18:46.371Z,6.30
2018-04-02T23:21:48.972Z,5.67
2018-04-02T23:24:51.548Z,6.23
2018-04-02T23:27:54.067Z,6.87
2018-04-02T23:30:56.561Z,7.23
2018-04-02T23:33:59.080Z,6.67
2018-04-02T23:37:01.581Z,5.80
2018-04-02T23:40:04.041Z,5.43
2018-04-02T23:43:06.606Z,6.03
2018-04-02T23:46:09.087Z,5.90
2018-04-02T23:49:11.625Z,5.27
2018-04-02T23:52:14.092Z,5.43
2018-04-02T23:55:16.651Z,5.13
2018-04-02T23:58:19.163Z,5.90
